createdAt,value
2019-03-06T00:02:21.092Z,88.25
2019-03-06T00:04:51.294Z,88.48
2019-03-06T00:07:21.336Z,87.60
2019-03-06T00:09:51.854Z,88.13
2019-03-06T00:12:21.916Z,88.49
2019-03-06T00:14:52.062Z,87.95
2019-03-06T00:17:22.118Z,88.11
2019-03-06T00:19:52.272Z,88.27
2019-03-06T00:22:22.332Z,88.30
2019-03-06T00:24:52.563Z,88.47
2019-03-06T00:27:22.592Z,88.95
2019-03-06T00:29:52.735Z,88.64
2019-03-06T00:32:22.820Z,88.15
2019-03-06T00:34:53.832Z,88.58
2019-03-06T00:37:23.912Z,88.34
2019-03-06T00:40:02.809Z,87.86
2019-03-06T00:42:35.885Z,87.78
2019-03-06T00:45:07.714Z,87.24
2019-03-06T00:47:37.753Z,87.27
2019-03-06T00:50:07.963Z,87.46
2019-03-06T00:52:37.988Z,87.38
2019-03-06T00:55:08.090Z,87.25
2019-03-06T00:57:38.080Z,87.84
2019-03-06T01:00:08.256Z,87.62
2019-03-06T01:02:38.347Z,87.22
2019-03-06T01:05:08.498Z,86.91
2019-03-06T01:07:38.604Z,87.11
2019-03-06T01:10:09.866Z,86.95
2019-03-06T01:12:40.174Z,86.89
2019-03-06T01:15:11.130Z,87.48
2019-03-06T01:17:41.331Z,87.15
2019-03-06T01:20:12.256Z,87.11
2019-03-06T01:22:42.358Z,87.22
2019-03-06T01:25:12.575Z,87.07
2019-03-06T01:27:42.628Z,86.78
2019-03-06T01:30:14.551Z,87.09
2019-03-06T01:32:45.657Z,87.10
2019-03-06T01:35:37.524Z,87.10
2019-03-06T01:38:19.740Z,87.20
2019-03-06T01:41:21.212Z,87.53
2019-03-06T01:43:56.025Z,87.11
2019-03-06T01:46:26.458Z,88.08
2019-03-06T01:48:56.604Z,88.54
2019-03-06T01:51:26.791Z,87.73
2019-03-06T01:53:56.955Z,88.00
2019-03-06T01:56:26.971Z,88.03
2019-03-06T01:58:57.038Z,88.05
2019-03-06T02:01:27.111Z,87.77
2019-03-06T02:03:57.196Z,87.86
2019-03-06T02:06:27.186Z,87.60
2019-03-06T02:08:57.271Z,87.82
2019-03-06T02:11:27.323Z,88.08
2019-03-06T02:13:57.298Z,87.83
2019-03-06T02:16:27.728Z,87.70
2019-03-06T02:18:57.781Z,87.70
2019-03-06T02:21:27.817Z,87.78
2019-03-06T02:23:57.879Z,87.42
2019-03-06T02:26:28.160Z,87.19
2019-03-06T02:28:58.222Z,87.43
2019-03-06T02:31:28.225Z,87.33
2019-03-06T02:33:58.278Z,87.91
2019-03-06T02:36:28.303Z,87.46
2019-03-06T02:38:58.354Z,87.78
2019-03-06T02:41:28.398Z,87.54
2019-03-06T02:43:58.406Z,88.20
2019-03-06T02:46:28.445Z,88.50
2019-03-06T02:48:58.439Z,87.74
2019-03-06T02:51:28.464Z,87.86
2019-03-06T02:53:58.479Z,88.68
2019-03-06T02:56:28.620Z,88.52
2019-03-06T02:59:03.613Z,87.88
2019-03-06T03:02:07.650Z,87.59
2019-03-06T03:04:45.698Z,88.07
2019-03-06T03:07:18.124Z,87.94
2019-03-06T03:09:48.189Z,87.95
2019-03-06T03:12:18.257Z,87.85
2019-03-06T03:14:48.346Z,88.13
2019-03-06T03:17:18.393Z,88.91
2019-03-06T03:19:48.579Z,88.46
2019-03-06T03:22:18.684Z,88.71
2019-03-06T03:24:48.771Z,88.52
2019-03-06T03:27:18.858Z,88.13
2019-03-06T03:29:48.931Z,87.84
2019-03-06T03:32:19.178Z,88.20
2019-03-06T03:34:49.285Z,88.40
2019-03-06T03:37:19.588Z,88.37
2019-03-06T03:39:49.931Z,88.01
2019-03-06T03:42:20.102Z,87.97
2019-03-06T03:44:50.242Z,87.86
2019-03-06T03:47:20.414Z,88.34
2019-03-06T03:49:50.592Z,88.66
2019-03-06T03:52:20.935Z,88.76
2019-03-06T03:54:50.931Z,88.42
2019-03-06T03:57:20.987Z,88.72
2019-03-06T03:59:51.084Z,88.74
2019-03-06T04:02:21.180Z,88.50
2019-03-06T04:04:51.657Z,88.80
2019-03-06T04:07:21.902Z,89.00
2019-03-06T04:09:51.911Z,89.63
2019-03-06T04:12:21.968Z,89.37
2019-03-06T04:14:52.024Z,89.28
2019-03-06T04:17:22.058Z,89.81
2019-03-06T04:19:52.102Z,89.61
2019-03-06T04:22:22.143Z,89.25
2019-03-06T04:24:52.214Z,89.07
2019-03-06T04:27:22.221Z,89.32
2019-03-06T04:29:52.282Z,89.38
2019-03-06T04:32:22.575Z,89.21
2019-03-06T04:34:52.743Z,89.53
2019-03-06T04:37:22.762Z,89.46
2019-03-06T04:39:52.816Z,89.23
2019-03-06T04:42:22.848Z,89.27
2019-03-06T04:44:52.990Z,89.14
2019-03-06T04:47:22.980Z,89.02
2019-03-06T04:49:53.169Z,89.28
2019-03-06T04:52:23.152Z,89.81
2019-03-06T04:54:53.218Z,89.97
2019-03-06T04:57:23.241Z,89.21
2019-03-06T04:59:53.306Z,89.08
2019-03-06T05:02:23.327Z,89.42
2019-03-06T05:04:53.362Z,89.33
2019-03-06T05:07:23.652Z,89.34
2019-03-06T05:09:53.726Z,89.38
2019-03-06T05:12:23.712Z,89.31
2019-03-06T05:14:53.842Z,89.42
2019-03-06T05:17:54.956Z,89.49
2019-03-06T05:20:24.972Z,89.67
2019-03-06T05:22:55.152Z,89.34
2019-03-06T05:25:25.316Z,89.29
2019-03-06T05:27:55.318Z,90.08
2019-03-06T05:30:27.013Z,89.78
2019-03-06T05:32:58.072Z,90.25
2019-03-06T05:36:14.180Z,90.04
2019-03-06T05:38:51.552Z,90.47
2019-03-06T05:41:21.620Z,89.79
2019-03-06T05:43:51.665Z,90.13
2019-03-06T05:46:21.704Z,90.29
2019-03-06T05:48:51.743Z,90.06
2019-03-06T05:51:21.756Z,90.48
2019-03-06T05:53:51.774Z,90.71
2019-03-06T05:56:21.829Z,90.62
2019-03-06T05:58:51.849Z,90.32
2019-03-06T06:01:21.932Z,90.84
2019-03-06T06:03:51.935Z,91.00
2019-03-06T06:06:21.981Z,91.21
2019-03-06T06:08:52.010Z,91.53
2019-03-06T06:11:21.994Z,91.13
2019-03-06T06:13:52.020Z,91.25
2019-03-06T06:16:22.012Z,90.86
2019-03-06T06:18:52.030Z,91.37
2019-03-06T06:21:37.848Z,92.07
2019-03-06T06:24:12.384Z,92.10
2019-03-06T06:26:42.364Z,92.76
2019-03-06T06:29:12.385Z,92.31
2019-03-06T06:31:42.400Z,92.45
2019-03-06T06:34:12.436Z,92.52
2019-03-06T06:36:42.454Z,93.29
2019-03-06T06:39:12.524Z,93.09
2019-03-06T06:41:44.791Z,93.25
2019-03-06T06:44:14.922Z,93.53
2019-03-06T06:46:45.820Z,93.46
2019-03-06T06:49:18.974Z,93.45
2019-03-06T06:52:24.505Z,92.68
2019-03-06T06:55:27.270Z,92.60
2019-03-06T06:58:40.978Z,93.41
2019-03-06T07:01:47.916Z,93.81
2019-03-06T07:04:48.714Z,94.30
2019-03-06T07:07:49.569Z,94.34
2019-03-06T07:10:37.535Z,94.41
2019-03-06T07:13:16.080Z,94.73
2019-03-06T07:16:08.130Z,94.66
2019-03-06T07:19:15.088Z,94.65
2019-03-06T07:22:13.681Z,94.70
2019-03-06T07:25:09.147Z,94.21
2019-03-06T07:27:53.055Z,94.21
2019-03-06T07:30:48.284Z,94.20
2019-03-06T07:33:37.013Z,93.36
2019-03-06T07:36:26.011Z,94.16
2019-03-06T07:39:18.170Z,93.53
2019-03-06T07:41:55.604Z,93.43
2019-03-06T07:44:49.488Z,93.33
2019-03-06T07:47:47.817Z,93.40
2019-03-06T07:50:39.877Z,93.96
2019-03-06T07:54:00.286Z,93.97
2019-03-06T07:56:35.429Z,94.56
2019-03-06T07:59:08.491Z,95.15
2019-03-06T08:06:27.809Z,95.19
2019-03-06T08:24:51.233Z,97.38
2019-03-06T08:56:33.677Z,97.32
2019-03-06T09:03:19.227Z,97.57
2019-03-06T09:10:42.699Z,97.45
2019-03-06T09:34:18.546Z,96.97
2019-03-06T09:50:47.182Z,96.70
2019-03-06T09:54:26.227Z,96.74
2019-03-06T10:12:00.373Z,95.86
2019-03-06T10:15:55.487Z,95.90
2019-03-06T10:19:17.858Z,95.72
2019-03-06T10:22:41.541Z,95.27
2019-03-06T10:25:40.528Z,94.94
2019-03-06T10:31:42.955Z,94.58
2019-03-06T10:34:28.778Z,94.65
2019-03-06T10:37:22.687Z,94.01
2019-03-06T10:41:07.371Z,94.15
2019-03-06T10:44:04.490Z,94.42
2019-03-06T10:50:51.785Z,93.45
2019-03-06T10:54:31.500Z,93.55
2019-03-06T10:57:06.451Z,93.05
2019-03-06T10:59:45.910Z,93.21
2019-03-06T11:16:27.660Z,92.73
2019-03-06T11:19:54.189Z,92.01
2019-03-06T11:23:01.950Z,92.70
2019-03-06T11:25:49.704Z,91.77
2019-03-06T11:28:23.444Z,92.19
2019-03-06T11:34:44.161Z,91.63
2019-03-06T11:39:30.491Z,91.62
2019-03-06T11:42:58.969Z,91.67
2019-03-06T11:57:50.590Z,91.03
2019-03-06T12:00:57.440Z,90.72
2019-03-06T12:03:47.796Z,90.64
2019-03-06T12:06:40.837Z,91.20
2019-03-06T12:09:33.744Z,90.09
2019-03-06T12:12:07.297Z,89.74
2019-03-06T12:14:40.736Z,90.30
2019-03-06T12:17:13.976Z,90.37
2019-03-06T12:19:48.754Z,90.92
2019-03-06T12:22:18.909Z,90.48
2019-03-06T12:24:53.567Z,90.51
2019-03-06T12:27:33.767Z,89.20
2019-03-06T12:37:57.267Z,90.00
2019-03-06T12:40:19.580Z,88.93
2019-03-06T12:40:22.498Z,89.58
2019-03-06T12:43:00.952Z,89.62
2019-03-06T12:49:53.598Z,89.12
2019-03-06T12:54:09.254Z,89.33
2019-03-06T12:55:24.724Z,89.20
2019-03-06T13:01:25.156Z,87.95
2019-03-06T13:05:34.328Z,88.93
2019-03-06T13:08:49.810Z,88.13
2019-03-06T13:15:24.252Z,87.91
2019-03-06T13:17:55.190Z,89.42
2019-03-06T13:20:25.337Z,88.21
2019-03-06T13:28:16.097Z,88.12
2019-03-06T13:33:24.801Z,87.58
2019-03-06T13:46:22.149Z,87.65
2019-03-06T13:49:48.868Z,87.17
2019-03-06T13:57:13.196Z,86.84
2019-03-06T14:00:33.009Z,87.09
2019-03-06T14:03:29.083Z,87.07
2019-03-06T14:11:27.795Z,85.94
2019-03-06T14:12:45.032Z,85.56
2019-03-06T14:28:07.786Z,85.11
2019-03-06T14:30:51.179Z,85.26
2019-03-06T14:37:39.767Z,84.98
2019-03-06T14:48:57.521Z,84.46
2019-03-06T14:52:09.078Z,84.08
2019-03-06T14:54:54.037Z,84.16
2019-03-06T14:58:14.021Z,83.99
2019-03-06T15:04:57.284Z,83.76
2019-03-06T15:08:22.541Z,83.49
2019-03-06T15:14:20.680Z,82.93
2019-03-06T15:14:36.104Z,82.90
2019-03-06T15:24:44.567Z,83.31
2019-03-06T15:28:12.039Z,82.85
2019-03-06T15:31:26.714Z,82.96
2019-03-06T15:34:11.228Z,83.52
2019-03-06T15:37:29.184Z,83.52
2019-03-06T15:44:02.638Z,83.01
2019-03-06T15:47:02.806Z,83.17
2019-03-06T16:04:02.610Z,82.13
2019-03-06T16:07:17.417Z,82.78
2019-03-06T16:10:28.882Z,83.28
2019-03-06T16:13:15.661Z,83.34
2019-03-06T16:16:57.430Z,83.86
2019-03-06T16:22:05.584Z,83.10
2019-03-06T16:23:27.536Z,83.30
2019-03-06T16:32:32.614Z,83.00
2019-03-06T16:35:06.038Z,83.17
2019-03-06T16:37:36.966Z,83.46
2019-03-06T16:40:11.203Z,83.30
2019-03-06T16:42:41.443Z,83.42
2019-03-06T16:45:12.090Z,83.41
2019-03-06T16:47:42.182Z,83.95
2019-03-06T16:50:17.881Z,83.63
2019-03-06T16:52:54.574Z,83.85
2019-03-06T16:55:25.025Z,84.17
2019-03-06T16:57:55.362Z,84.70
2019-03-06T17:00:27.195Z,85.02
2019-03-06T17:02:57.546Z,85.44
2019-03-06T17:05:27.714Z,85.38
2019-03-06T17:07:58.039Z,85.92
2019-03-06T17:10:28.305Z,86.21
2019-03-06T17:12:58.443Z,86.33
2019-03-06T17:15:28.943Z,86.51
2019-03-06T17:17:59.028Z,87.62
2019-03-06T17:20:29.132Z,88.16
2019-03-06T17:22:59.315Z,88.04
2019-03-06T17:25:29.660Z,89.01
2019-03-06T17:27:59.719Z,89.01
2019-03-06T17:30:29.783Z,89.41
2019-03-06T17:33:08.788Z,89.72
2019-03-06T17:35:39.059Z,90.24
2019-03-06T17:38:09.935Z,90.58
2019-03-06T17:40:40.427Z,90.76
2019-03-06T17:43:10.541Z,91.12
2019-03-06T17:45:40.690Z,91.42
2019-03-06T17:48:11.574Z,91.50
2019-03-06T17:50:41.635Z,91.79
2019-03-06T17:53:12.101Z,91.95
2019-03-06T17:55:42.389Z,91.92
2019-03-06T17:58:12.487Z,91.55
2019-03-06T18:00:45.377Z,92.15
2019-03-06T18:03:18.557Z,92.48
2019-03-06T18:05:48.640Z,92.67
2019-03-06T18:08:18.739Z,92.08
2019-03-06T18:10:48.806Z,92.31
2019-03-06T18:13:18.923Z,92.39
2019-03-06T18:15:48.923Z,92.19
2019-03-06T18:18:19.040Z,92.43
2019-03-06T18:20:49.082Z,92.34
2019-03-06T18:23:19.178Z,92.25
2019-03-06T18:25:49.637Z,92.72
2019-03-06T18:28:19.735Z,92.55
2019-03-06T18:30:49.911Z,92.72
2019-03-06T18:33:20.012Z,92.99
2019-03-06T18:35:50.443Z,93.28
2019-03-06T18:38:20.556Z,93.22
2019-03-06T18:40:50.721Z,93.59
2019-03-06T18:43:21.249Z,93.70
2019-03-06T18:45:51.485Z,93.28
2019-03-06T18:48:21.607Z,93.85
2019-03-06T18:50:51.744Z,93.59
2019-03-06T18:53:22.219Z,94.22
2019-03-06T18:55:52.310Z,94.09
2019-03-06T18:58:22.469Z,94.03
2019-03-06T19:00:52.595Z,93.93
2019-03-06T19:03:22.695Z,93.72
2019-03-06T19:05:52.815Z,93.72
2019-03-06T19:08:31.128Z,93.76
2019-03-06T19:10:54.700Z,93.91
2019-03-06T19:13:24.773Z,93.97
2019-03-06T19:15:54.856Z,94.04
2019-03-06T19:18:25.062Z,93.99
2019-03-06T19:20:55.471Z,94.16
2019-03-06T19:23:25.586Z,94.40
2019-03-06T19:25:55.727Z,94.09
2019-03-06T19:28:25.799Z,93.99
2019-03-06T19:30:55.909Z,94.28
2019-03-06T19:33:26.021Z,94.09
2019-03-06T19:35:56.131Z,94.15
2019-03-06T19:38:30.707Z,93.96
2019-03-06T19:41:03.659Z,94.21
2019-03-06T19:43:42.376Z,94.28
2019-03-06T19:46:12.769Z,94.30
2019-03-06T19:48:42.995Z,94.19
2019-03-06T19:51:13.169Z,94.21
2019-03-06T19:53:43.238Z,94.15
2019-03-06T19:56:13.421Z,94.01
2019-03-06T19:58:45.255Z,93.89
2019-03-06T20:01:16.677Z,94.19
2019-03-06T20:03:50.082Z,94.22
2019-03-06T20:06:26.793Z,94.24
2019-03-06T20:08:58.717Z,94.36
2019-03-06T20:11:30.929Z,93.93
2019-03-06T20:14:02.718Z,94.09
2019-03-06T20:16:32.817Z,94.29
2019-03-06T20:19:02.967Z,94.30
2019-03-06T20:21:33.207Z,94.20
2019-03-06T20:24:06.036Z,94.56
2019-03-06T20:26:37.920Z,95.02
2019-03-06T20:29:09.139Z,94.63
2019-03-06T20:31:39.207Z,94.79
2019-03-06T20:34:09.280Z,94.45
2019-03-06T20:36:39.339Z,94.59
2019-03-06T20:39:09.555Z,94.00
2019-03-06T20:41:39.622Z,94.01
2019-03-06T20:44:09.720Z,94.35
2019-03-06T20:46:39.775Z,94.37
2019-03-06T20:49:09.892Z,94.40
2019-03-06T20:51:39.983Z,94.22
2019-03-06T20:54:10.045Z,94.19
2019-03-06T20:56:40.094Z,94.08
2019-03-06T20:59:10.148Z,94.05
2019-03-06T21:01:40.196Z,94.04
2019-03-06T21:04:22.034Z,93.55
2019-03-06T21:07:02.357Z,93.82
2019-03-06T21:09:32.622Z,94.01
2019-03-06T21:12:04.720Z,94.48
2019-03-06T21:14:34.850Z,94.78
2019-03-06T21:17:04.886Z,94.62
2019-03-06T21:19:42.418Z,94.63
2019-03-06T21:22:12.448Z,94.54
2019-03-06T21:24:45.428Z,94.29
2019-03-06T21:27:23.833Z,94.41
2019-03-06T21:29:54.868Z,94.62
2019-03-06T21:32:25.141Z,94.56
2019-03-06T21:34:55.386Z,94.88
2019-03-06T21:37:25.559Z,94.82
2019-03-06T21:39:57.961Z,94.81
2019-03-06T21:42:27.988Z,95.13
2019-03-06T21:45:02.879Z,95.06
2019-03-06T21:47:32.934Z,95.08
2019-03-06T21:50:03.000Z,95.14
2019-03-06T21:52:33.040Z,94.74
2019-03-06T21:55:03.126Z,94.89
2019-03-06T21:57:33.200Z,94.87
2019-03-06T22:00:03.518Z,94.81
2019-03-06T22:02:34.066Z,94.69
2019-03-06T22:05:04.203Z,94.63
2019-03-06T22:07:34.390Z,94.57
2019-03-06T22:10:04.608Z,94.14
2019-03-06T22:12:34.680Z,94.61
2019-03-06T22:15:05.773Z,94.53
2019-03-06T22:17:35.959Z,94.48
2019-03-06T22:20:06.851Z,94.13
2019-03-06T22:22:36.916Z,94.19
2019-03-06T22:25:07.764Z,94.28
2019-03-06T22:27:37.904Z,94.08
2019-03-06T22:30:10.423Z,94.00
2019-03-06T22:32:40.530Z,94.30
2019-03-06T22:35:10.996Z,94.00
2019-03-06T22:37:41.098Z,94.09
2019-03-06T22:40:12.141Z,93.87
2019-03-06T22:42:42.307Z,93.58
2019-03-06T22:45:13.840Z,93.60
2019-03-06T22:47:43.867Z,93.41
2019-03-06T22:50:14.431Z,93.49
2019-03-06T22:52:44.582Z,93.22
2019-03-06T22:55:15.652Z,93.49
2019-03-06T22:57:45.825Z,93.11
2019-03-06T23:00:42.262Z,92.72
2019-03-06T23:03:13.168Z,92.88
2019-03-06T23:05:43.342Z,92.99
2019-03-06T23:08:13.660Z,92.72
2019-03-06T23:10:44.337Z,92.96
2019-03-06T23:13:14.467Z,92.92
2019-03-06T23:15:44.851Z,92.79
2019-03-06T23:18:14.866Z,92.90
2019-03-06T23:20:44.982Z,92.55
2019-03-06T23:23:15.062Z,92.62
2019-03-06T23:25:45.277Z,92.55
2019-03-06T23:28:15.512Z,92.70
2019-03-06T23:30:45.654Z,92.59
2019-03-06T23:33:15.792Z,92.65
2019-03-06T23:35:45.862Z,92.47
2019-03-06T23:38:15.987Z,92.60
2019-03-06T23:40:46.158Z,92.79
2019-03-06T23:43:16.363Z,92.68
2019-03-06T23:45:46.432Z,92.66
2019-03-06T23:48:16.489Z,92.24
2019-03-06T23:50:47.218Z,92.44
2019-03-06T23:53:19.959Z,92.36
2019-03-06T23:55:50.107Z,92.11
2019-03-06T23:58:20.218Z,92.11
